Time;durP1;ratioP1;P1;durP2;ratioP2;P2;SDS_P1;SDS_P2;PMS_P1;PMS_P2;Temp;Humidity;BMP_temperature;BMP_pressure;BME280_temperature;BME280_humidity;BME280_pressure;Samples;Min_cycle;Max_cycle;Signal;HPM_P1;HPM_P2
2023/07/29 00:01:47;;;;;;;8.00;5.57;;;;;;;17.76;100.00;100553.03;5282537;28;20044;-72
2023/07/29 00:04:18;;;;;;;8.17;5.90;;;;;;;17.81;100.00;100545.75;5283137;28;20384;-71
2023/07/29 00:06:50;;;;;;;7.40;5.00;;;;;;;17.89;100.00;100544.56;5282926;28;20028;-72
2023/07/29 00:09:21;;;;;;;7.17;4.63;;;;;;;17.90;100.00;100541.00;5282673;28;20353;-75
2023/07/29 00:11:53;;;;;;;5.73;4.90;;;;;;;17.90;100.00;100557.66;5285236;28;20040;-74
2023/07/29 00:14:24;;;;;;;10.40;5.87;;;;;;;17.84;100.00;100553.53;5287058;28;20062;-74
2023/07/29 00:16:55;;;;;;;5.83;5.13;;;;;;;17.76;100.00;100558.28;5286841;28;20526;-74
2023/07/29 00:19:28;;;;;;;7.07;4.83;;;;;;;17.81;100.00;100555.44;5286677;28;20064;-74
2023/07/29 00:21:59;;;;;;;7.63;5.25;;;;;;;17.75;100.00;100558.38;5286985;28;20037;-74
2023/07/29 00:24:31;;;;;;;13.10;5.50;;;;;;;17.68;100.00;100545.47;5286852;28;20336;-73
2023/07/29 00:27:02;;;;;;;10.43;5.83;;;;;;;17.61;100.00;100551.09;5286835;28;20086;-73
2023/07/29 00:29:34;;;;;;;7.50;5.60;;;;;;;17.71;100.00;100549.75;5286759;28;20029;-72
2023/07/29 00:32:05;;;;;;;9.00;5.80;;;;;;;17.67;100.00;100556.91;5285626;28;20127;-72
2023/07/29 00:34:37;;;;;;;7.90;5.85;;;;;;;17.75;100.00;100548.66;5286489;28;20028;-72
2023/07/29 00:37:08;;;;;;;7.43;5.27;;;;;;;17.76;100.00;100537.22;5285293;28;20055;-72
2023/07/29 00:39:40;;;;;;;6.90;5.73;;;;;;;17.73;100.00;100529.44;5286596;28;20372;-72
2023/07/29 00:42:11;;;;;;;6.47;5.25;;;;;;;17.78;100.00;100526.59;5284968;28;20032;-73
2023/07/29 00:44:43;;;;;;;6.63;5.83;;;;;;;17.71;100.00;100533.06;5286140;28;20055;-73
2023/07/29 00:47:15;;;;;;;6.40;5.53;;;;;;;17.70;100.00;100534.84;5285787;28;20035;-73
2023/07/29 00:49:47;;;;;;;;;;;;;;;17.70;100.00;100528.72;5286694;28;20036;-73
2023/07/29 00:52:18;;;;;;;8.00;5.95;;;;;;;17.59;100.00;100530.06;5285896;28;19916;-72
2023/07/29 00:54:50;;;;;;;8.47;6.30;;;;;;;17.50;100.00;100520.81;5286265;28;20115;-73
2023/07/29 00:57:22;;;;;;;10.23;6.57;;;;;;;17.47;100.00;100509.56;5286230;28;20468;-72
2023/07/29 00:59:54;;;;;;;7.43;6.05;;;;;;;17.48;100.00;100512.13;5284949;28;20041;-72
2023/07/29 01:02:26;;;;;;;8.57;5.85;;;;;;;17.54;100.00;100516.25;5285677;28;20460;-74
2023/07/29 01:04:58;;;;;;;7.35;6.32;;;;;;;17.52;100.00;100523.38;5286033;28;20028;-73
2023/07/29 01:07:45;;;;;;;8.95;5.90;;;;;;;17.43;100.00;100523.78;5285927;28;20041;-73
2023/07/29 01:10:30;;;;;;;8.15;5.40;;;;;;;17.42;100.00;100515.03;5286012;28;20478;-73
2023/07/29 01:13:29;;;;;;;9.60;6.18;;;;;;;17.43;100.00;100519.38;5285808;28;20028;-73
2023/07/29 01:16:14;;;;;;;9.93;6.50;;;;;;;17.29;100.00;100524.41;5285496;28;20052;-73
2023/07/29 01:18:47;;;;;;;8.45;6.47;;;;;;;17.26;100.00;100524.56;5285770;28;20352;-73
2023/07/29 01:21:20;;;;;;;7.15;6.25;;;;;;;17.23;100.00;100524.72;5285466;28;20025;-72
2023/07/29 01:23:58;;;;;;;10.13;6.68;;;;;;;17.19;100.00;100521.34;5284791;28;20472;-73
2023/07/29 01:26:30;;;;;;;11.25;6.50;;;;;;;17.28;100.00;100520.09;5285429;28;20033;-72
2023/07/29 01:29:01;;;;;;;9.20;7.00;;;;;;;17.25;100.00;100521.06;5285218;28;20048;-72
2023/07/29 01:31:35;;;;;;;8.03;6.27;;;;;;;17.18;100.00;100526.66;5285625;28;20380;-72
2023/07/29 01:34:17;;;;;;;9.68;6.78;;;;;;;17.20;100.00;100520.41;5285468;28;20563;-72
2023/07/29 01:36:51;;;;;;;9.10;6.70;;;;;;;17.13;100.00;100526.91;5284094;28;20468;-73
2023/07/29 01:39:23;;;;;;;7.90;6.80;;;;;;;17.11;100.00;100537.50;5283979;28;20036;-73
2023/07/29 01:41:55;;;;;;;7.25;5.97;;;;;;;17.01;100.00;100524.78;5285164;28;20115;-73
2023/07/29 01:44:27;;;;;;;7.83;6.37;;;;;;;16.98;100.00;100538.94;5285281;28;20104;-73
2023/07/29 01:46:59;;;;;;;7.93;5.97;;;;;;;16.97;100.00;100542.50;5284755;28;20472;-73
2023/07/29 01:49:31;;;;;;;8.52;6.38;;;;;;;16.99;100.00;100538.03;5285323;28;20052;-73
2023/07/29 01:52:02;;;;;;;9.40;5.67;;;;;;;16.95;100.00;100539.06;5285009;28;20033;-73
2023/07/29 01:54:34;;;;;;;9.67;4.83;;;;;;;16.91;100.00;100538.34;5283817;28;20471;-72
2023/07/29 01:57:05;;;;;;;12.43;5.40;;;;;;;16.88;100.00;100538.47;5283928;28;20060;-72
2023/07/29 01:59:37;;;;;;;7.57;4.77;;;;;;;16.92;100.00;100539.19;5284828;28;20060;-72
2023/07/29 02:02:08;;;;;;;5.10;4.53;;;;;;;16.90;100.00;100538.41;5283469;28;20090;-73
2023/07/29 02:04:39;;;;;;;5.10;4.30;;;;;;;16.91;100.00;100537.50;5284838;28;20488;-73
2023/07/29 02:07:11;;;;;;;6.23;4.20;;;;;;;16.97;100.00;100536.38;5284773;28;20460;-73
2023/07/29 02:09:42;;;;;;;4.57;4.10;;;;;;;16.98;100.00;100531.03;5284422;28;20039;-73
2023/07/29 02:12:13;;;;;;;6.50;3.73;;;;;;;16.92;100.00;100534.81;5284636;28;20032;-73
2023/07/29 02:14:45;;;;;;;5.17;3.80;;;;;;;16.90;100.00;100531.34;5284604;28;20464;-73
2023/07/29 02:17:16;;;;;;;7.70;4.03;;;;;;;16.97;100.00;100523.19;5282791;28;20033;-74
2023/07/29 02:19:48;;;;;;;4.95;4.10;;;;;;;16.90;100.00;100520.00;5284613;28;20380;-72
2023/07/29 02:22:19;;;;;;;5.57;3.87;;;;;;;16.90;100.00;100517.34;5284420;28;20039;-71
2023/07/29 02:24:50;;;;;;;4.53;3.20;;;;;;;16.92;100.00;100523.41;5284419;28;20077;-73
2023/07/29 02:27:22;;;;;;;6.33;3.83;;;;;;;16.88;100.00;100516.56;5284336;28;20035;-74
2023/07/29 02:29:53;;;;;;;7.07;3.77;;;;;;;16.86;100.00;100519.28;5284395;28;20063;-74
2023/07/29 02:32:25;;;;;;;5.93;3.47;;;;;;;16.84;100.00;100518.47;5284383;28;20028;-74
2023/07/29 02:34:56;;;;;;;6.20;4.00;;;;;;;16.78;100.00;100518.72;5283313;28;20085;-74
2023/07/29 02:37:28;;;;;;;3.97;3.00;;;;;;;16.71;100.00;100520.75;5284225;28;20033;-74
2023/07/29 02:40:00;;;;;;;6.07;3.60;;;;;;;16.65;100.00;100517.53;5283911;28;20033;-73
2023/07/29 02:42:31;;;;;;;5.05;4.35;;;;;;;16.63;100.00;100520.22;5284019;28;20021;-73
2023/07/29 02:45:03;;;;;;;4.97;3.40;;;;;;;16.56;100.00;100516.13;5283995;28;20472;-73
2023/07/29 02:47:35;;;;;;;5.57;3.97;;;;;;;16.57;100.00;100512.59;5281994;28;20049;-73
2023/07/29 02:50:06;;;;;;;5.27;3.40;;;;;;;16.50;100.00;100514.63;5283757;28;20511;-73
2023/07/29 02:52:38;;;;;;;4.95;3.67;;;;;;;16.47;100.00;100505.97;5283855;28;20392;-73
2023/07/29 02:55:10;;;;;;;5.47;3.58;;;;;;;16.46;100.00;100507.78;5284246;28;20086;-73
2023/07/29 02:57:41;;;;;;;5.53;4.03;;;;;;;16.43;100.00;100513.16;5283513;28;20111;-73
2023/07/29 03:00:13;;;;;;;7.67;4.33;;;;;;;16.34;100.00;100505.63;5283738;28;20035;-73
2023/07/29 03:02:44;;;;;;;5.82;4.32;;;;;;;16.39;100.00;100499.28;5283822;28;20036;-73
2023/07/29 03:05:16;;;;;;;5.63;4.03;;;;;;;16.39;100.00;100507.19;5265974;28;20043;-72
2023/07/29 03:07:47;;;;;;;5.27;3.87;;;;;;;16.39;100.00;100503.69;5283920;28;20033;-72
2023/07/29 03:10:18;;;;;;;7.53;4.60;;;;;;;16.37;100.00;100501.13;5283403;28;20036;-72
2023/07/29 03:12:50;;;;;;;9.67;4.73;;;;;;;16.34;100.00;100503.00;5283676;28;20033;-73
2023/07/29 03:15:26;;;;;;;6.95;4.75;;;;;;;16.31;100.00;100505.75;5283625;28;20036;-74
2023/07/29 03:17:57;;;;;;;5.72;4.47;;;;;;;16.21;100.00;100500.03;5283297;28;20471;-73
2023/07/29 03:20:28;;;;;;;5.90;5.13;;;;;;;16.25;100.00;100511.31;5283258;28;20127;-73
2023/07/29 03:23:00;;;;;;;7.93;4.63;;;;;;;16.20;100.00;100516.75;5283306;28;20071;-73
2023/07/29 03:25:31;;;;;;;5.63;4.90;;;;;;;16.19;100.00;100518.50;5283286;28;20028;-73
2023/07/29 03:28:02;;;;;;;7.07;4.57;;;;;;;16.18;100.00;100524.69;5283276;28;20056;-73
2023/07/29 03:30:34;;;;;;;5.53;4.33;;;;;;;16.17;100.00;100528.22;5282112;28;20537;-73
2023/07/29 03:33:05;;;;;;;6.40;5.03;;;;;;;16.10;100.00;100518.88;5283393;28;20062;-73
2023/07/29 03:35:37;;;;;;;6.60;4.97;;;;;;;16.09;100.00;100513.69;5283343;28;20075;-73
2023/07/29 03:38:08;;;;;;;8.67;4.93;;;;;;;16.02;100.00;100520.97;5282372;28;20048;-73
2023/07/29 03:40:40;;;;;;;6.47;4.40;;;;;;;15.96;100.00;100526.47;5283417;28;20047;-73
2023/07/29 03:43:12;;;;;;;6.47;4.68;;;;;;;15.91;100.00;100517.91;5281908;28;20031;-73
2023/07/29 03:45:43;;;;;;;7.40;5.07;;;;;;;15.89;100.00;100520.59;5284258;28;20033;-73
2023/07/29 03:48:14;;;;;;;7.03;4.37;;;;;;;15.90;100.00;100521.44;5289326;28;20496;-73
2023/07/29 03:50:46;;;;;;;7.77;4.53;;;;;;;15.87;100.00;100522.41;5290062;28;20111;-73
2023/07/29 03:53:17;;;;;;;7.33;4.63;;;;;;;15.84;100.00;100527.78;5289801;28;20028;-73
2023/07/29 03:55:50;;;;;;;7.17;5.27;;;;;;;15.81;100.00;100504.25;5289747;28;20055;-73
2023/07/29 03:58:21;;;;;;;;;;;;;;;15.79;100.00;100495.56;5290123;28;20036;-73
2023/07/29 04:00:52;;;;;;;6.55;4.60;;;;;;;15.79;100.00;100475.41;5290002;28;19916;-73
2023/07/29 04:03:23;;;;;;;6.43;5.10;;;;;;;15.78;100.00;100475.47;5289976;28;20064;-73
2023/07/29 04:05:55;;;;;;;8.00;4.93;;;;;;;15.74;100.00;100477.31;5289856;28;20059;-73
2023/07/29 04:08:26;;;;;;;6.57;4.73;;;;;;;15.73;100.00;100482.63;5290292;28;20334;-74
2023/07/29 04:10:58;;;;;;;8.23;5.00;;;;;;;15.72;100.00;100484.41;5290159;28;20029;-73
2023/07/29 04:13:29;;;;;;;12.57;6.27;;;;;;;15.73;100.00;100475.63;5290180;28;20085;-72
2023/07/29 04:16:01;;;;;;;9.17;4.93;;;;;;;15.72;100.00;100475.69;5290402;28;20036;-73
2023/07/29 04:18:32;;;;;;;6.53;4.50;;;;;;;15.63;100.00;100482.13;5288593;28;20032;-73
2023/07/29 04:21:04;;;;;;;6.17;4.97;;;;;;;15.67;100.00;100495.09;5289028;28;20679;-73
2023/07/29 04:23:35;;;;;;;8.47;4.47;;;;;;;15.64;100.00;100513.59;5289793;28;20025;-72
2023/07/29 04:26:06;;;;;;;7.03;5.27;;;;;;;15.65;100.00;100525.00;5288866;28;20140;-73
2023/07/29 04:28:38;;;;;;;7.60;4.83;;;;;;;15.71;100.00;100521.25;5290204;28;20371;-74
2023/07/29 04:31:09;;;;;;;5.73;4.60;;;;;;;15.71;100.00;100529.16;5288839;28;20132;-74
2023/07/29 04:33:41;;;;;;;8.67;4.40;;;;;;;15.77;100.00;100539.47;5289744;28;20040;-74
2023/07/29 04:36:12;;;;;;;8.67;4.10;;;;;;;15.86;100.00;100526.81;5289939;28;20040;-74
2023/07/29 04:38:43;;;;;;;5.93;4.57;;;;;;;15.89;100.00;100517.97;5289647;28;20116;-73
2023/07/29 04:41:15;;;;;;;7.57;4.50;;;;;;;15.95;100.00;100530.84;5289780;28;20025;-74
2023/07/29 04:43:46;;;;;;;6.27;3.70;;;;;;;15.97;100.00;100536.91;5289580;28;20059;-73
2023/07/29 04:46:18;;;;;;;6.63;4.17;;;;;;;16.04;100.00;100537.53;5289351;28;20471;-74
2023/07/29 04:48:49;;;;;;;5.37;3.93;;;;;;;16.03;100.00;100544.56;5289524;28;20052;-73
2023/07/29 04:51:21;;;;;;;4.30;3.40;;;;;;;16.10;100.00;100534.66;5289614;28;20387;-73
2023/07/29 04:53:52;;;;;;;5.72;3.70;;;;;;;16.09;100.00;100537.34;5289512;28;20115;-72
2023/07/29 04:56:24;;;;;;;4.20;3.13;;;;;;;16.10;100.00;100541.66;5289673;28;20033;-72
2023/07/29 04:58:55;;;;;;;4.33;3.17;;;;;;;16.11;100.00;100544.25;5285787;28;20036;-72
2023/07/29 05:01:26;;;;;;;3.37;2.93;;;;;;;16.13;100.00;100542.44;5286183;28;20489;-72
2023/07/29 05:03:58;;;;;;;5.87;3.33;;;;;;;16.12;100.00;100538.09;5286041;28;20106;-72
2023/07/29 05:06:29;;;;;;;3.63;2.83;;;;;;;16.15;100.00;100545.84;5285855;28;20029;-73
2023/07/29 05:09:13;;;;;;;5.77;3.27;;;;;;;16.21;100.00;100552.63;5285835;28;20031;-73
2023/07/29 05:11:45;;;;;;;5.80;3.30;;;;;;;16.25;100.00;100558.63;5286035;28;20039;-73
2023/07/29 05:14:18;;;;;;;5.13;3.13;;;;;;;16.26;100.00;100560.34;5285856;28;20024;-74
2023/07/29 05:16:49;;;;;;;5.45;2.80;;;;;;;16.30;100.00;100554.03;5285492;28;20043;-74
2023/07/29 05:19:20;;;;;;;3.47;2.60;;;;;;;16.36;100.00;100572.22;5285758;28;20033;-72
2023/07/29 05:21:52;;;;;;;4.13;3.20;;;;;;;16.36;100.00;100566.97;5284459;28;20040;-72
2023/07/29 05:24:24;;;;;;;6.27;3.27;;;;;;;16.37;100.00;100566.91;5285708;28;20032;-73
2023/07/29 05:26:55;;;;;;;4.95;3.10;;;;;;;16.30;100.00;100552.25;5285652;28;20025;-73
2023/07/29 05:29:26;;;;;;;3.97;3.10;;;;;;;16.28;100.00;100550.63;5285716;28;20387;-73
2023/07/29 05:31:58;;;;;;;8.00;3.33;;;;;;;16.25;100.00;100556.84;5285308;28;20033;-73
2023/07/29 05:34:29;;;;;;;3.47;2.53;;;;;;;16.25;100.00;100554.22;5285640;28;20074;-73
2023/07/29 05:37:00;;;;;;;5.33;3.10;;;;;;;16.27;100.00;100556.78;5285522;28;20068;-73
2023/07/29 05:39:33;;;;;;;5.63;3.07;;;;;;;16.31;100.00;100553.97;5279216;28;20068;-73
2023/07/29 05:42:05;;;;;;;4.85;2.80;;;;;;;16.36;100.00;100564.31;5281580;28;20075;-74
2023/07/29 05:44:36;;;;;;;5.28;3.05;;;;;;;16.50;100.00;100548.84;5284902;28;20049;-72
2023/07/29 05:47:08;;;;;;;6.37;3.03;;;;;;;16.54;100.00;100554.81;5284144;28;20039;-73
2023/07/29 05:49:39;;;;;;;8.40;3.17;;;;;;;16.64;100.00;100556.13;5284985;28;20048;-73
2023/07/29 05:52:10;;;;;;;5.60;3.50;;;;;;;16.67;100.00;100556.00;5284169;28;20052;-73
2023/07/29 05:54:44;;;;;;;4.67;3.10;;;;;;;16.82;100.00;100562.41;5284179;28;20060;-73
2023/07/29 05:57:16;;;;;;;3.78;3.00;;;;;;;16.96;100.00;100567.13;5284446;28;20063;-73
2023/07/29 05:59:47;;;;;;;4.27;2.97;;;;;;;17.07;100.00;100561.41;5284686;28;20063;-75
2023/07/29 06:02:19;;;;;;;4.97;3.00;;;;;;;17.18;100.00;100560.91;5284216;28;20024;-74
2023/07/29 06:04:50;;;;;;;5.30;3.27;;;;;;;17.28;100.00;100562.22;5283478;28;20060;-75
2023/07/29 06:07:22;;;;;;;7.07;3.00;;;;;;;17.44;99.94;100565.03;5283938;28;20498;-79
2023/07/29 06:09:55;;;;;;;5.17;2.93;;;;;;;17.53;99.84;100561.97;5284622;28;20436;-82
2023/07/29 06:12:26;;;;;;;4.25;3.15;;;;;;;17.65;97.68;100565.84;5266954;28;20032;-78
2023/07/29 06:14:57;;;;;;;7.20;3.03;;;;;;;17.73;98.42;100560.22;5285126;28;20426;-76
2023/07/29 06:17:29;;;;;;;4.00;3.00;;;;;;;17.80;98.32;100562.47;5282047;28;20501;-76
2023/07/29 06:20:00;;;;;;;5.50;2.60;;;;;;;17.87;97.55;100560.44;5285068;28;20028;-76
2023/07/29 06:22:31;;;;;;;7.03;3.00;;;;;;;17.85;96.72;100555.25;5282822;28;20040;-77
2023/07/29 06:25:03;;;;;;;13.67;4.27;;;;;;;17.91;98.35;100550.63;5284990;28;20043;-71
2023/07/29 06:27:34;;;;;;;4.80;3.20;;;;;;;17.77;96.84;100548.59;5283641;28;20122;-73
2023/07/29 06:30:06;;;;;;;5.27;3.50;;;;;;;17.70;96.35;100557.72;5283128;28;20070;-72
2023/07/29 06:32:38;;;;;;;5.05;3.55;;;;;;;17.59;97.78;100564.34;5283841;28;20040;-71
2023/07/29 06:35:09;;;;;;;4.87;3.00;;;;;;;17.60;98.18;100555.50;5284174;28;20032;-70
2023/07/29 06:37:40;;;;;;;3.70;2.63;;;;;;;17.72;97.46;100567.25;5283876;28;20047;-72
2023/07/29 06:40:12;;;;;;;4.10;2.83;;;;;;;17.78;97.01;100561.72;5284474;28;20035;-72
2023/07/29 06:42:43;;;;;;;3.27;2.53;;;;;;;17.90;96.88;100557.66;5283297;28;20135;-72
2023/07/29 06:45:15;;;;;;;3.57;2.73;;;;;;;17.89;96.80;100557.72;5283942;28;20032;-73
2023/07/29 06:47:46;;;;;;;4.47;2.85;;;;;;;17.92;97.04;100554.97;5282795;28;20035;-71
2023/07/29 06:50:18;;;;;;;5.50;3.07;;;;;;;17.90;96.79;100570.00;5283889;28;20032;-72
2023/07/29 06:52:49;;;;;;;3.87;2.70;;;;;;;18.01;96.52;100567.72;5283461;28;20059;-73
2023/07/29 06:55:21;;;;;;;4.20;2.83;;;;;;;18.17;96.13;100571.31;5283852;28;20064;-73
2023/07/29 06:57:52;;;;;;;3.70;2.60;;;;;;;18.37;94.66;100583.56;5282960;28;20032;-72
2023/07/29 07:00:23;;;;;;;3.40;2.20;;;;;;;18.52;93.59;100581.97;5283118;28;20074;-73
2023/07/29 07:02:55;;;;;;;3.37;2.20;;;;;;;18.82;93.67;100576.09;5282563;28;20035;-72
2023/07/29 07:05:26;;;;;;;3.30;2.40;;;;;;;19.02;90.92;100575.09;5282315;28;20029;-73
2023/07/29 07:07:58;;;;;;;4.07;2.63;;;;;;;19.00;89.12;100576.97;5283079;28;20032;-73
2023/07/29 07:10:29;;;;;;;4.70;2.90;;;;;;;18.94;89.99;100579.94;5283648;28;20025;-74
2023/07/29 07:13:00;;;;;;;4.07;2.87;;;;;;;18.86;90.46;100588.22;5282935;28;20044;-73
2023/07/29 07:15:32;;;;;;;4.73;2.70;;;;;;;18.92;90.26;100584.44;5283820;28;20025;-73
2023/07/29 07:18:03;;;;;;;4.17;2.63;;;;;;;18.99;90.30;100588.47;5282819;28;20506;-75
2023/07/29 07:20:34;;;;;;;4.93;2.77;;;;;;;19.04;88.73;100586.44;5282949;28;20033;-74
2023/07/29 07:23:10;;;;;;;4.20;2.50;;;;;;;19.03;89.13;100586.50;5283065;28;20041;-74
2023/07/29 07:25:44;;;;;;;4.45;2.63;;;;;;;19.13;88.70;100588.59;5283816;28;20028;-75
2023/07/29 07:28:16;;;;;;;5.45;2.40;;;;;;;19.50;87.75;100599.91;5283110;28;20076;-72
2023/07/29 07:30:47;;;;;;;3.30;2.80;;;;;;;19.62;86.10;100606.31;5283596;28;20032;-73
2023/07/29 07:33:18;;;;;;;2.90;2.43;;;;;;;19.58;86.05;100596.00;5283322;28;20210;-73
2023/07/29 07:35:50;;;;;;;4.00;2.40;;;;;;;19.59;85.54;100600.34;5283677;28;20036;-75
2023/07/29 07:38:21;;;;;;;4.30;2.53;;;;;;;19.61;85.96;100603.75;5283103;28;20082;-75
2023/07/29 07:40:56;;;;;;;4.23;2.27;;;;;;;19.66;86.49;100607.03;5283796;28;20475;-74
2023/07/29 07:43:28;;;;;;;3.80;2.45;;;;;;;19.56;84.90;100611.94;5282907;28;20029;-74
2023/07/29 07:46:01;;;;;;;7.37;2.73;;;;;;;19.53;84.64;100609.47;5283572;28;20585;-73
2023/07/29 07:48:33;;;;;;;3.63;2.50;;;;;;;19.60;85.47;100610.84;5281800;28;20131;-75
2023/07/29 07:51:12;;;;;;;3.45;2.25;;;;;;;19.70;85.08;100613.00;5282968;28;20163;-75
2023/07/29 07:53:43;;;;;;;4.70;2.15;;;;;;;19.79;85.18;100612.53;5282463;28;20361;-75
2023/07/29 07:56:15;;;;;;;2.47;1.93;;;;;;;20.13;82.53;100611.53;5283353;28;20059;-75
2023/07/29 07:58:46;;;;;;;3.05;2.22;;;;;;;20.36;81.88;100609.38;5281471;28;20032;-73
2023/07/29 08:01:17;;;;;;;3.13;1.97;;;;;;;20.51;79.04;100612.94;5283005;28;20485;-74
2023/07/29 08:03:49;;;;;;;3.97;2.27;;;;;;;20.51;80.29;100612.94;5282969;28;20032;-74
2023/07/29 08:06:21;;;;;;;2.80;1.90;;;;;;;20.38;79.58;100602.19;5282047;28;20029;-74
2023/07/29 08:08:52;;;;;;;3.35;1.98;;;;;;;20.47;79.80;100600.84;5282569;28;20103;-74
2023/07/29 08:11:24;;;;;;;2.87;2.30;;;;;;;20.56;79.17;100606.47;5282670;28;20029;-74
2023/07/29 08:13:55;;;;;;;3.75;1.73;;;;;;;20.86;77.57;100610.94;5281565;28;20028;-75
2023/07/29 08:16:27;;;;;;;3.20;1.60;;;;;;;20.63;76.07;100614.06;5282086;28;20032;-74
2023/07/29 08:18:58;;;;;;;2.60;1.80;;;;;;;20.56;77.08;100616.22;5282426;28;20089;-73
2023/07/29 08:21:29;;;;;;;2.77;1.87;;;;;;;20.50;77.92;100612.09;5282853;28;20503;-73
2023/07/29 08:24:01;;;;;;;3.10;1.93;;;;;;;20.42;77.35;100624.09;5281901;28;20039;-72
2023/07/29 08:26:32;;;;;;;5.30;1.57;;;;;;;20.17;77.98;100621.03;5283053;28;20025;-74
2023/07/29 08:29:03;;;;;;;2.73;1.53;;;;;;;20.04;78.16;100620.84;5282426;28;20526;-72
2023/07/29 08:31:35;;;;;;;2.67;1.80;;;;;;;20.03;78.37;100619.13;5281461;28;20118;-76
2023/07/29 08:34:06;;;;;;;5.37;2.13;;;;;;;19.86;79.01;100620.03;5283843;28;20040;-74
2023/07/29 08:36:38;;;;;;;3.53;1.85;;;;;;;19.94;78.69;100618.78;5286230;28;20027;-73
2023/07/29 08:39:10;;;;;;;2.10;1.60;;;;;;;20.04;79.11;100612.91;5284519;28;20206;-73
2023/07/29 08:41:47;;;;;;;4.72;1.80;;;;;;;19.98;79.30;100613.25;5286518;28;20044;-74
2023/07/29 08:44:22;;;;;;;3.13;1.90;;;;;;;19.90;79.00;100604.88;5286569;28;20028;-73
2023/07/29 08:46:55;;;;;;;3.05;2.05;;;;;;;19.83;79.75;100598.19;5285582;28;20040;-74
2023/07/29 08:49:29;;;;;;;2.75;2.00;;;;;;;20.00;80.47;100606.06;5276057;28;20049;-73
2023/07/29 08:52:01;;;;;;;2.97;1.73;;;;;;;20.25;78.93;100609.97;5284867;28;20432;-73
2023/07/29 08:54:33;;;;;;;3.58;1.75;;;;;;;20.67;77.50;100603.22;5285512;28;20037;-74
2023/07/29 08:57:06;;;;;;;2.97;1.77;;;;;;;21.19;74.70;100599.28;5284148;28;20127;-73
2023/07/29 08:59:37;;;;;;;2.55;1.73;;;;;;;21.51;72.23;100603.59;5285858;28;20060;-74
2023/07/29 09:02:09;;;;;;;2.38;1.58;;;;;;;21.68;71.16;100614.84;5280962;28;20174;-78
2023/07/29 09:04:40;;;;;;;2.70;1.80;;;;;;;21.52;70.60;100611.47;5277993;28;20041;-73
2023/07/29 09:07:12;;;;;;;1.97;1.60;;;;;;;21.62;70.67;100619.69;5274861;28;20107;-74
2023/07/29 09:09:43;;;;;;;2.60;1.58;;;;;;;21.73;69.87;100619.03;5284326;28;20041;-73
2023/07/29 09:12:15;;;;;;;2.23;1.63;;;;;;;21.63;69.70;100614.28;5283660;28;20190;-72
2023/07/29 09:14:46;;;;;;;5.67;1.60;;;;;;;21.66;69.03;100613.25;5285688;28;20052;-73
2023/07/29 09:17:17;;;;;;;3.93;1.80;;;;;;;21.69;70.29;100613.09;5283383;28;20506;-73
2023/07/29 09:19:51;;;;;;;2.30;1.73;;;;;;;21.51;69.31;100608.91;5285599;28;20068;-73
2023/07/29 09:22:22;;;;;;;1.38;1.23;;;;;;;21.49;69.95;100596.59;5284642;28;20025;-74
2023/07/29 09:24:57;;;;;;;3.67;1.70;;;;;;;21.59;70.31;100598.66;5284104;28;20025;-72
2023/07/29 09:27:31;;;;;;;3.92;1.40;;;;;;;21.53;69.93;100593.75;5284664;28;20041;-73
2023/07/29 09:30:04;;;;;;;3.50;1.50;;;;;;;21.54;71.03;100592.78;5283712;28;20425;-74
2023/07/29 09:32:39;;;;;;;2.05;1.58;;;;;;;21.78;70.01;100598.38;5283246;28;20040;-73
2023/07/29 09:35:12;;;;;;;3.33;1.50;;;;;;;22.07;69.87;100601.81;5286338;28;20441;-72
2023/07/29 09:37:43;;;;;;;3.65;1.70;;;;;;;22.29;67.28;100592.50;5278371;28;20029;-73
2023/07/29 09:40:16;;;;;;;4.70;2.20;;;;;;;22.23;67.24;100591.06;5266750;28;20041;-72
2023/07/29 09:42:49;;;;;;;;;;;;;;;22.17;67.18;100595.00;5269081;28;20028;-72
2023/07/29 09:45:25;;;;;;;2.13;1.60;;;;;;;21.64;69.98;100600.09;5283053;28;19913;-75
2023/07/29 09:47:58;;;;;;;3.53;1.80;;;;;;;21.55;70.91;100591.88;5283387;28;20048;-72
2023/07/29 09:50:30;;;;;;;5.00;1.70;;;;;;;21.65;71.51;100600.94;5283305;28;20538;-73
2023/07/29 09:53:03;;;;;;;4.97;1.77;;;;;;;21.40;71.45;100597.13;5298431;28;20048;-72
2023/07/29 09:55:34;;;;;;;;;;;;;;;21.36;71.89;100614.16;5284977;28;20029;-69
2023/07/29 09:58:08;;;;;;;3.43;1.77;;;;;;;20.88;74.27;100606.41;5283790;28;20427;-70
2023/07/29 10:00:40;;;;;;;2.38;1.77;;;;;;;20.71;75.13;100611.84;5283114;28;20039;-73
2023/07/29 10:03:12;;;;;;;6.25;1.90;;;;;;;20.75;75.36;100602.75;5283497;28;20044;-71
2023/07/29 10:05:44;;;;;;;;;;;;;;;21.01;75.09;100609.19;5284249;28;20036;-74
2023/07/29 10:08:16;;;;;;;2.80;1.80;;;;;;;21.35;73.24;100606.28;5283245;28;19917;-71
2023/07/29 10:10:49;;;;;;;;;;;;;;;21.82;73.11;100599.91;5283852;28;20036;-72
2023/07/29 10:13:21;;;;;;;3.17;1.75;;;;;;;22.15;69.50;100601.34;5284000;28;19916;-72
2023/07/29 10:15:55;;;;;;;1.52;1.42;;;;;;;22.85;66.98;100597.69;5267042;28;20429;-73
2023/07/29 10:18:28;;;;;;;3.72;1.80;;;;;;;22.78;65.95;100605.22;5283660;28;20075;-71
2023/07/29 10:21:01;;;;;;;4.45;1.90;;;;;;;23.23;65.29;100599.56;5284443;28;20032;-71
2023/07/29 10:23:38;;;;;;;2.13;1.60;;;;;;;23.63;62.49;100592.28;5282636;28;20045;-73
2023/07/29 10:26:10;;;;;;;5.13;1.65;;;;;;;24.60;61.21;100586.28;5284511;28;20111;-71
2023/07/29 10:28:47;;;;;;;2.22;1.73;;;;;;;25.73;54.50;100597.16;5283794;28;20028;-75
2023/07/29 10:31:20;;;;;;;5.13;1.80;;;;;;;26.80;51.34;100594.75;5283997;28;20418;-75
2023/07/29 10:33:51;;;;;;;2.42;1.75;;;;;;;27.27;48.88;100593.38;5283687;28;20468;-74
2023/07/29 10:36:24;;;;;;;3.15;1.75;;;;;;;28.20;44.53;100586.09;5284257;28;20031;-74
2023/07/29 10:38:55;;;;;;;2.85;2.00;;;;;;;27.01;46.04;100579.53;5281724;28;20418;-75
2023/07/29 10:41:45;;;;;;;;;;;;;;;28.35;47.41;100578.53;5284110;28;20073;-73
2023/07/29 10:44:42;;;;;;;3.67;1.60;;;;;;;28.84;45.37;100564.25;5282537;28;19986;-74
2023/07/29 10:47:18;;;;;;;2.67;1.67;;;;;;;26.72;46.75;100574.84;5282392;28;20020;-75
2023/07/29 10:49:56;;;;;;;2.78;1.80;;;;;;;25.12;51.29;100577.00;5283097;28;20472;-74
2023/07/29 10:52:28;;;;;;;3.83;2.10;;;;;;;24.13;54.92;100565.69;5282836;28;20028;-74
2023/07/29 10:55:01;;;;;;;2.67;2.13;;;;;;;23.69;57.39;100566.25;5283491;28;20071;-74
2023/07/29 10:57:34;;;;;;;3.03;1.83;;;;;;;23.41;58.95;100558.41;5282157;28;20025;-74
2023/07/29 11:00:06;;;;;;;3.17;1.70;;;;;;;23.35;58.76;100564.16;5283004;28;20032;-74
2023/07/29 11:02:38;;;;;;;2.63;2.00;;;;;;;23.18;60.77;100564.47;5282316;28;20037;-74
2023/07/29 11:05:17;;;;;;;2.92;1.70;;;;;;;22.94;62.25;100575.78;5283294;28;20032;-75
2023/07/29 11:07:49;;;;;;;3.42;1.90;;;;;;;22.56;63.86;100572.13;5282705;28;20024;-74
2023/07/29 11:10:21;;;;;;;2.30;1.80;;;;;;;22.33;65.10;100571.00;5282550;28;20029;-74
2023/07/29 11:12:54;;;;;;;3.33;1.95;;;;;;;22.06;68.07;100570.06;5281097;28;20127;-74
2023/07/29 11:15:27;;;;;;;4.25;2.95;;;;;;;22.14;68.52;100565.16;5283400;28;20111;-75
2023/07/29 11:18:00;;;;;;;2.63;1.80;;;;;;;22.13;66.57;100577.53;5281781;28;20025;-75
2023/07/29 11:20:33;;;;;;;4.28;1.90;;;;;;;22.17;67.37;100564.91;5283269;28;20052;-74
2023/07/29 11:23:05;;;;;;;2.75;2.00;;;;;;;22.28;68.45;100570.41;5282293;28;20033;-74
2023/07/29 11:25:38;;;;;;;3.10;2.15;;;;;;;22.89;66.03;100567.28;5283122;28;20016;-75
2023/07/29 11:28:09;;;;;;;;;;;;;;;23.64;62.46;100572.72;5282194;28;20504;-75
2023/07/29 11:30:40;;;;;;;2.10;1.63;;;;;;;24.50;58.72;100570.09;5282996;28;19998;-74
2023/07/29 11:33:12;;;;;;;3.50;2.10;;;;;;;24.60;56.65;100567.63;5282259;28;20454;-74
2023/07/29 11:35:43;;;;;;;2.95;1.90;;;;;;;24.79;55.94;100575.09;5282722;28;20028;-75
2023/07/29 11:38:17;;;;;;;2.43;2.10;;;;;;;24.85;56.86;100555.97;5277765;28;20031;-76
2023/07/29 11:41:19;;;;;;;3.13;1.80;;;;;;;26.06;55.19;100568.75;5280696;28;20377;-74
2023/07/29 11:43:50;;;;;;;3.85;1.70;;;;;;;26.98;52.28;100571.78;5280808;28;20115;-73
2023/07/29 11:46:22;;;;;;;2.13;1.90;;;;;;;27.93;48.54;100569.81;5280505;28;20127;-74